sensor_id;sensor_type;location;lat;lon;timestamp;P1;durP1;ratioP1;P2;durP2;ratioP2
31754;SDS011;18325;52.018;4.726;2024-01-30T00:01:35;17.10;;;7.93;;
31754;SDS011;18325;52.018;4.726;2024-01-30T00:04:02;21.53;;;8.80;;
31754;SDS011;18325;52.018;4.726;2024-01-30T00:06:29;15.20;;;7.13;;
31754;SDS011;18325;52.018;4.726;2024-01-30T00:08:56;11.90;;;7.87;;
31754;SDS011;18325;52.018;4.726;2024-01-30T00:11:24;13.03;;;7.10;;
31754;SDS011;18325;52.018;4.726;2024-01-30T00:13:51;12.00;;;7.13;;
31754;SDS011;18325;52.018;4.726;2024-01-30T00:16:21;14.57;;;7.43;;
31754;SDS011;18325;52.018;4.726;2024-01-30T00:18:49;12.53;;;7.73;;
31754;SDS011;18325;52.018;4.726;2024-01-30T00:21:15;13.80;;;8.33;;
31754;SDS011;18325;52.018;4.726;2024-01-30T00:23:42;17.27;;;7.00;;
31754;SDS011;18325;52.018;4.726;2024-01-30T00:26:08;13.87;;;8.03;;
31754;SDS011;18325;52.018;4.726;2024-01-30T00:28:38;17.83;;;8.33;;
31754;SDS011;18325;52.018;4.726;2024-01-30T00:31:05;13.37;;;7.27;;
31754;SDS011;18325;52.018;4.726;2024-01-30T00:33:31;14.30;;;7.00;;
31754;SDS011;18325;52.018;4.726;2024-01-30T00:35:58;14.07;;;7.13;;
31754;SDS011;18325;52.018;4.726;2024-01-30T00:38:25;13.50;;;7.47;;
31754;SDS011;18325;52.018;4.726;2024-01-30T00:40:51;11.83;;;7.47;;
31754;SDS011;18325;52.018;4.726;2024-01-30T00:43:18;16.87;;;8.30;;
31754;SDS011;18325;52.018;4.726;2024-01-30T00:45:47;12.27;;;6.73;;
31754;SDS011;18325;52.018;4.726;2024-01-30T00:48:15;13.13;;;7.90;;
31754;SDS011;18325;52.018;4.726;2024-01-30T00:50:42;13.40;;;7.33;;
31754;SDS011;18325;52.018;4.726;2024-01-30T00:53:09;14.40;;;6.67;;
31754;SDS011;18325;52.018;4.726;2024-01-30T00:55:36;10.53;;;6.77;;
31754;SDS011;18325;52.018;4.726;2024-01-30T00:58:03;12.97;;;6.80;;
31754;SDS011;18325;52.018;4.726;2024-01-30T01:00:30;15.97;;;6.93;;
31754;SDS011;18325;52.018;4.726;2024-01-30T01:02:58;14.40;;;7.43;;
31754;SDS011;18325;52.018;4.726;2024-01-30T01:05:25;10.97;;;7.43;;
31754;SDS011;18325;52.018;4.726;2024-01-30T01:07:52;13.07;;;7.07;;
31754;SDS011;18325;52.018;4.726;2024-01-30T01:10:18;12.63;;;7.27;;
31754;SDS011;18325;52.018;4.726;2024-01-30T01:12:45;11.73;;;6.33;;
31754;SDS011;18325;52.018;4.726;2024-01-30T01:15:12;13.43;;;6.77;;
31754;SDS011;18325;52.018;4.726;2024-01-30T01:17:38;12.30;;;7.13;;
31754;SDS011;18325;52.018;4.726;2024-01-30T01:20:08;14.00;;;7.27;;
31754;SDS011;18325;52.018;4.726;2024-01-30T01:22:39;11.03;;;6.77;;
31754;SDS011;18325;52.018;4.726;2024-01-30T01:25:06;12.03;;;7.03;;
31754;SDS011;18325;52.018;4.726;2024-01-30T01:27:33;12.53;;;6.80;;
31754;SDS011;18325;52.018;4.726;2024-01-30T01:30:05;13.30;;;6.13;;
31754;SDS011;18325;52.018;4.726;2024-01-30T01:32:34;15.73;;;7.27;;
31754;SDS011;18325;52.018;4.726;2024-01-30T01:35:11;16.57;;;6.70;;
31754;SDS011;18325;52.018;4.726;2024-01-30T01:37:37;13.77;;;7.13;;
31754;SDS011;18325;52.018;4.726;2024-01-30T01:40:05;11.33;;;6.70;;
31754;SDS011;18325;52.018;4.726;2024-01-30T01:42:33;11.73;;;6.60;;
31754;SDS011;18325;52.018;4.726;2024-01-30T01:45:00;11.07;;;6.53;;
31754;SDS011;18325;52.018;4.726;2024-01-30T01:47:27;8.93;;;6.27;;
31754;SDS011;18325;52.018;4.726;2024-01-30T01:50:01;11.53;;;6.53;;
31754;SDS011;18325;52.018;4.726;2024-01-30T01:52:29;11.23;;;6.40;;
31754;SDS011;18325;52.018;4.726;2024-01-30T01:54:56;10.10;;;6.13;;
31754;SDS011;18325;52.018;4.726;2024-01-30T01:57:22;11.93;;;5.40;;
31754;SDS011;18325;52.018;4.726;2024-01-30T01:59:49;11.27;;;6.43;;
31754;SDS011;18325;52.018;4.726;2024-01-30T02:02:16;11.63;;;6.93;;
31754;SDS011;18325;52.018;4.726;2024-01-30T02:04:43;13.33;;;7.00;;
31754;SDS011;18325;52.018;4.726;2024-01-30T02:07:09;11.30;;;6.37;;
31754;SDS011;18325;52.018;4.726;2024-01-30T02:09:38;13.50;;;6.27;;
31754;SDS011;18325;52.018;4.726;2024-01-30T02:12:05;10.37;;;6.47;;
31754;SDS011;18325;52.018;4.726;2024-01-30T02:14:32;10.80;;;6.20;;
31754;SDS011;18325;52.018;4.726;2024-01-30T02:16:59;13.07;;;6.50;;
31754;SDS011;18325;52.018;4.726;2024-01-30T02:19:25;15.00;;;7.53;;
31754;SDS011;18325;52.018;4.726;2024-01-30T02:21:53;10.20;;;5.97;;
31754;SDS011;18325;52.018;4.726;2024-01-30T02:24:20;10.43;;;6.20;;
31754;SDS011;18325;52.018;4.726;2024-01-30T02:26:49;13.23;;;6.13;;
31754;SDS011;18325;52.018;4.726;2024-01-30T02:29:16;17.07;;;7.30;;
31754;SDS011;18325;52.018;4.726;2024-01-30T02:31:43;9.83;;;6.13;;
31754;SDS011;18325;52.018;4.726;2024-01-30T02:34:11;11.13;;;6.53;;
31754;SDS011;18325;52.018;4.726;2024-01-30T02:36:37;11.70;;;6.30;;
31754;SDS011;18325;52.018;4.726;2024-01-30T02:39:04;11.27;;;6.77;;
31754;SDS011;18325;52.018;4.726;2024-01-30T02:41:32;11.07;;;6.10;;
31754;SDS011;18325;52.018;4.726;2024-01-30T02:43:59;10.87;;;6.43;;
31754;SDS011;18325;52.018;4.726;2024-01-30T02:46:25;13.33;;;6.03;;
31754;SDS011;18325;52.018;4.726;2024-01-30T02:48:52;9.63;;;6.23;;
31754;SDS011;18325;52.018;4.726;2024-01-30T02:51:19;12.43;;;7.00;;
31754;SDS011;18325;52.018;4.726;2024-01-30T02:53:45;11.43;;;6.60;;
31754;SDS011;18325;52.018;4.726;2024-01-30T02:56:13;9.17;;;5.57;;
31754;SDS011;18325;52.018;4.726;2024-01-30T02:58:40;15.07;;;6.60;;
31754;SDS011;18325;52.018;4.726;2024-01-30T03:01:07;12.20;;;6.30;;
31754;SDS011;18325;52.018;4.726;2024-01-30T03:03:34;9.97;;;6.07;;
31754;SDS011;18325;52.018;4.726;2024-01-30T03:06:01;12.47;;;7.47;;
31754;SDS011;18325;52.018;4.726;2024-01-30T03:08:28;12.43;;;6.07;;
31754;SDS011;18325;52.018;4.726;2024-01-30T03:10:54;16.93;;;6.57;;
31754;SDS011;18325;52.018;4.726;2024-01-30T03:13:22;11.97;;;6.23;;
31754;SDS011;18325;52.018;4.726;2024-01-30T03:15:50;12.63;;;5.93;;
31754;SDS011;18325;52.018;4.726;2024-01-30T03:18:16;12.57;;;6.57;;
31754;SDS011;18325;52.018;4.726;2024-01-30T03:20:43;11.77;;;7.03;;
31754;SDS011;18325;52.018;4.726;2024-01-30T03:23:09;10.47;;;6.43;;
31754;SDS011;18325;52.018;4.726;2024-01-30T03:25:36;10.57;;;6.27;;
31754;SDS011;18325;52.018;4.726;2024-01-30T03:28:03;11.03;;;5.63;;
31754;SDS011;18325;52.018;4.726;2024-01-30T03:31:33;10.07;;;5.83;;
31754;SDS011;18325;52.018;4.726;2024-01-30T03:34:00;13.67;;;5.93;;
31754;SDS011;18325;52.018;4.726;2024-01-30T03:36:27;9.37;;;5.63;;
31754;SDS011;18325;52.018;4.726;2024-01-30T03:38:53;10.67;;;6.10;;
31754;SDS011;18325;52.018;4.726;2024-01-30T03:41:20;10.83;;;6.90;;
31754;SDS011;18325;52.018;4.726;2024-01-30T03:43:47;12.73;;;6.83;;
31754;SDS011;18325;52.018;4.726;2024-01-30T03:46:13;14.13;;;6.60;;
31754;SDS011;18325;52.018;4.726;2024-01-30T03:48:42;11.13;;;6.37;;
31754;SDS011;18325;52.018;4.726;2024-01-30T03:51:22;12.37;;;6.70;;
31754;SDS011;18325;52.018;4.726;2024-01-30T03:53:49;10.37;;;6.20;;
31754;SDS011;18325;52.018;4.726;2024-01-30T03:56:15;8.60;;;5.63;;
31754;SDS011;18325;52.018;4.726;2024-01-30T03:58:43;14.37;;;6.40;;
31754;SDS011;18325;52.018;4.726;2024-01-30T04:01:12;11.33;;;6.00;;
31754;SDS011;18325;52.018;4.726;2024-01-30T04:03:39;14.83;;;5.80;;
31754;SDS011;18325;52.018;4.726;2024-01-30T04:06:07;12.23;;;6.63;;
31754;SDS011;18325;52.018;4.726;2024-01-30T04:08:34;10.83;;;6.03;;
31754;SDS011;18325;52.018;4.726;2024-01-30T04:11:02;14.07;;;7.03;;
31754;SDS011;18325;52.018;4.726;2024-01-30T04:13:30;13.63;;;6.40;;
31754;SDS011;18325;52.018;4.726;2024-01-30T04:15:58;12.03;;;6.57;;
31754;SDS011;18325;52.018;4.726;2024-01-30T04:18:25;10.83;;;6.20;;
31754;SDS011;18325;52.018;4.726;2024-01-30T04:20:51;12.07;;;6.50;;
31754;SDS011;18325;52.018;4.726;2024-01-30T04:23:19;12.57;;;5.93;;
31754;SDS011;18325;52.018;4.726;2024-01-30T04:25:46;11.57;;;6.00;;
31754;SDS011;18325;52.018;4.726;2024-01-30T04:28:12;8.97;;;5.90;;
31754;SDS011;18325;52.018;4.726;2024-01-30T04:30:39;19.70;;;7.07;;
31754;SDS011;18325;52.018;4.726;2024-01-30T04:33:06;10.50;;;5.93;;
31754;SDS011;18325;52.018;4.726;2024-01-30T04:35:32;13.23;;;5.87;;
31754;SDS011;18325;52.018;4.726;2024-01-30T04:37:59;12.40;;;6.43;;
31754;SDS011;18325;52.018;4.726;2024-01-30T04:40:29;11.63;;;6.07;;
31754;SDS011;18325;52.018;4.726;2024-01-30T04:42:58;11.87;;;5.97;;
31754;SDS011;18325;52.018;4.726;2024-01-30T04:45:25;10.07;;;6.27;;
31754;SDS011;18325;52.018;4.726;2024-01-30T04:47:52;10.03;;;6.20;;
31754;SDS011;18325;52.018;4.726;2024-01-30T04:50:18;9.50;;;6.07;;
31754;SDS011;18325;52.018;4.726;2024-01-30T04:56:51;9.23;;;5.67;;
31754;SDS011;18325;52.018;4.726;2024-01-30T04:59:18;15.53;;;7.13;;
31754;SDS011;18325;52.018;4.726;2024-01-30T05:01:45;11.17;;;6.30;;
31754;SDS011;18325;52.018;4.726;2024-01-30T05:04:11;11.00;;;6.10;;
31754;SDS011;18325;52.018;4.726;2024-01-30T05:06:38;9.87;;;6.03;;
31754;SDS011;18325;52.018;4.726;2024-01-30T05:09:05;11.03;;;6.43;;
31754;SDS011;18325;52.018;4.726;2024-01-30T05:11:32;11.03;;;5.50;;
31754;SDS011;18325;52.018;4.726;2024-01-30T05:14:04;10.80;;;5.77;;
31754;SDS011;18325;52.018;4.726;2024-01-30T05:16:31;10.40;;;6.03;;
31754;SDS011;18325;52.018;4.726;2024-01-30T05:18:58;11.23;;;6.13;;
31754;SDS011;18325;52.018;4.726;2024-01-30T05:21:25;11.43;;;7.03;;
31754;SDS011;18325;52.018;4.726;2024-01-30T05:23:52;9.70;;;5.90;;
31754;SDS011;18325;52.018;4.726;2024-01-30T05:26:19;10.97;;;5.97;;
31754;SDS011;18325;52.018;4.726;2024-01-30T05:28:47;12.33;;;7.20;;
31754;SDS011;18325;52.018;4.726;2024-01-30T05:31:16;12.10;;;6.70;;
31754;SDS011;18325;52.018;4.726;2024-01-30T05:33:43;11.83;;;6.57;;
31754;SDS011;18325;52.018;4.726;2024-01-30T05:36:11;14.20;;;7.00;;
31754;SDS011;18325;52.018;4.726;2024-01-30T05:38:38;14.30;;;6.73;;
31754;SDS011;18325;52.018;4.726;2024-01-30T05:41:04;15.57;;;6.17;;
31754;SDS011;18325;52.018;4.726;2024-01-30T05:43:31;13.93;;;7.20;;
31754;SDS011;18325;52.018;4.726;2024-01-30T05:45:58;14.90;;;6.30;;
31754;SDS011;18325;52.018;4.726;2024-01-30T05:48:26;12.70;;;6.27;;
31754;SDS011;18325;52.018;4.726;2024-01-30T05:50:52;13.03;;;6.50;;
31754;SDS011;18325;52.018;4.726;2024-01-30T05:53:19;13.00;;;6.67;;
31754;SDS011;18325;52.018;4.726;2024-01-30T05:55:46;10.67;;;5.63;;
31754;SDS011;18325;52.018;4.726;2024-01-30T05:58:12;9.23;;;6.10;;
31754;SDS011;18325;52.018;4.726;2024-01-30T06:00:39;11.30;;;6.07;;
31754;SDS011;18325;52.018;4.726;2024-01-30T06:03:05;14.17;;;6.93;;
31754;SDS011;18325;52.018;4.726;2024-01-30T06:05:33;16.20;;;6.47;;
31754;SDS011;18325;52.018;4.726;2024-01-30T06:08:00;10.37;;;6.07;;
31754;SDS011;18325;52.018;4.726;2024-01-30T06:10:28;11.20;;;6.27;;
31754;SDS011;18325;52.018;4.726;2024-01-30T06:12:54;11.27;;;6.43;;
31754;SDS011;18325;52.018;4.726;2024-01-30T06:15:21;22.63;;;12.27;;
31754;SDS011;18325;52.018;4.726;2024-01-30T06:17:47;14.57;;;8.10;;
31754;SDS011;18325;52.018;4.726;2024-01-30T06:20:14;37.53;;;20.03;;
31754;SDS011;18325;52.018;4.726;2024-01-30T06:22:43;15.93;;;9.03;;
31754;SDS011;18325;52.018;4.726;2024-01-30T06:25:10;13.60;;;7.03;;
31754;SDS011;18325;52.018;4.726;2024-01-30T06:27:37;12.97;;;7.47;;
31754;SDS011;18325;52.018;4.726;2024-01-30T06:30:06;13.97;;;6.83;;
31754;SDS011;18325;52.018;4.726;2024-01-30T06:32:35;15.50;;;7.53;;
31754;SDS011;18325;52.018;4.726;2024-01-30T06:35:03;8.87;;;6.20;;
31754;SDS011;18325;52.018;4.726;2024-01-30T06:37:30;13.13;;;7.53;;
31754;SDS011;18325;52.018;4.726;2024-01-30T06:39:58;12.47;;;6.87;;
31754;SDS011;18325;52.018;4.726;2024-01-30T06:42:25;12.07;;;7.17;;
31754;SDS011;18325;52.018;4.726;2024-01-30T06:44:52;9.50;;;6.27;;
31754;SDS011;18325;52.018;4.726;2024-01-30T06:47:19;10.50;;;6.20;;
31754;SDS011;18325;52.018;4.726;2024-01-30T06:49:45;13.97;;;6.57;;
31754;SDS011;18325;52.018;4.726;2024-01-30T06:52:14;11.77;;;6.90;;
31754;SDS011;18325;52.018;4.726;2024-01-30T06:54:41;11.40;;;6.70;;
31754;SDS011;18325;52.018;4.726;2024-01-30T06:57:09;13.97;;;7.00;;
31754;SDS011;18325;52.018;4.726;2024-01-30T06:59:37;12.90;;;6.27;;
31754;SDS011;18325;52.018;4.726;2024-01-30T07:02:08;11.90;;;6.50;;
31754;SDS011;18325;52.018;4.726;2024-01-30T07:04:34;10.87;;;5.53;;
31754;SDS011;18325;52.018;4.726;2024-01-30T07:07:02;13.53;;;7.13;;
31754;SDS011;18325;52.018;4.726;2024-01-30T07:09:29;10.70;;;6.33;;
31754;SDS011;18325;52.018;4.726;2024-01-30T07:11:56;16.93;;;7.80;;
31754;SDS011;18325;52.018;4.726;2024-01-30T07:14:24;13.47;;;7.30;;
31754;SDS011;18325;52.018;4.726;2024-01-30T07:16:51;10.90;;;6.73;;
31754;SDS011;18325;52.018;4.726;2024-01-30T07:19:19;13.73;;;6.87;;
31754;SDS011;18325;52.018;4.726;2024-01-30T07:21:46;10.40;;;6.40;;
31754;SDS011;18325;52.018;4.726;2024-01-30T07:24:12;12.67;;;5.97;;
31754;SDS011;18325;52.018;4.726;2024-01-30T07:26:39;12.57;;;6.20;;
31754;SDS011;18325;52.018;4.726;2024-01-30T07:29:06;7.83;;;5.77;;
31754;SDS011;18325;52.018;4.726;2024-01-30T07:31:34;14.30;;;6.80;;
31754;SDS011;18325;52.018;4.726;2024-01-30T07:34:01;10.10;;;6.43;;
31754;SDS011;18325;52.018;4.726;2024-01-30T07:36:28;16.00;;;7.23;;
31754;SDS011;18325;52.018;4.726;2024-01-30T07:38:55;15.40;;;6.93;;
31754;SDS011;18325;52.018;4.726;2024-01-30T07:41:21;10.43;;;6.77;;
31754;SDS011;18325;52.018;4.726;2024-01-30T07:43:48;17.67;;;6.33;;
31754;SDS011;18325;52.018;4.726;2024-01-30T07:46:14;11.27;;;6.03;;
31754;SDS011;18325;52.018;4.726;2024-01-30T07:48:42;14.40;;;6.93;;
31754;SDS011;18325;52.018;4.726;2024-01-30T07:51:09;12.40;;;7.07;;
31754;SDS011;18325;52.018;4.726;2024-01-30T07:53:38;14.20;;;6.97;;
31754;SDS011;18325;52.018;4.726;2024-01-30T07:56:27;12.53;;;6.93;;
31754;SDS011;18325;52.018;4.726;2024-01-30T07:58:53;11.10;;;6.80;;
31754;SDS011;18325;52.018;4.726;2024-01-30T08:01:20;14.30;;;7.03;;
31754;SDS011;18325;52.018;4.726;2024-01-30T08:03:48;11.57;;;6.53;;
31754;SDS011;18325;52.018;4.726;2024-01-30T08:06:14;14.97;;;7.00;;
31754;SDS011;18325;52.018;4.726;2024-01-30T08:08:41;12.70;;;6.40;;
31754;SDS011;18325;52.018;4.726;2024-01-30T08:11:08;11.50;;;6.60;;
31754;SDS011;18325;52.018;4.726;2024-01-30T08:13:34;14.57;;;6.67;;
31754;SDS011;18325;52.018;4.726;2024-01-30T08:16:04;11.27;;;6.03;;
31754;SDS011;18325;52.018;4.726;2024-01-30T08:18:31;10.43;;;6.70;;
31754;SDS011;18325;52.018;4.726;2024-01-30T08:20:59;11.90;;;6.37;;
31754;SDS011;18325;52.018;4.726;2024-01-30T08:23:25;14.17;;;5.57;;
31754;SDS011;18325;52.018;4.726;2024-01-30T08:25:52;11.53;;;6.07;;
31754;SDS011;18325;52.018;4.726;2024-01-30T08:28:19;10.87;;;5.87;;
31754;SDS011;18325;52.018;4.726;2024-01-30T08:30:47;14.67;;;6.67;;
31754;SDS011;18325;52.018;4.726;2024-01-30T08:33:13;12.07;;;6.37;;
31754;SDS011;18325;52.018;4.726;2024-01-30T08:35:40;11.90;;;6.57;;
31754;SDS011;18325;52.018;4.726;2024-01-30T08:38:08;14.53;;;7.03;;
31754;SDS011;18325;52.018;4.726;2024-01-30T08:40:37;12.53;;;6.90;;
31754;SDS011;18325;52.018;4.726;2024-01-30T08:43:04;15.10;;;6.77;;
31754;SDS011;18325;52.018;4.726;2024-01-30T08:45:35;11.97;;;6.77;;
31754;SDS011;18325;52.018;4.726;2024-01-30T08:48:02;9.93;;;5.93;;
31754;SDS011;18325;52.018;4.726;2024-01-30T08:50:29;11.47;;;5.73;;
31754;SDS011;18325;52.018;4.726;2024-01-30T08:52:56;11.63;;;5.60;;
31754;SDS011;18325;52.018;4.726;2024-01-30T08:55:24;10.63;;;5.60;;
31754;SDS011;18325;52.018;4.726;2024-01-30T08:57:52;15.10;;;6.97;;
31754;SDS011;18325;52.018;4.726;2024-01-30T09:00:19;16.77;;;6.77;;
31754;SDS011;18325;52.018;4.726;2024-01-30T09:02:46;11.40;;;6.17;;
31754;SDS011;18325;52.018;4.726;2024-01-30T09:05:12;12.40;;;6.33;;
31754;SDS011;18325;52.018;4.726;2024-01-30T09:07:39;12.93;;;7.63;;
31754;SDS011;18325;52.018;4.726;2024-01-30T09:10:06;15.23;;;7.33;;
31754;SDS011;18325;52.018;4.726;2024-01-30T09:15:32;11.63;;;6.77;;
31754;SDS011;18325;52.018;4.726;2024-01-30T09:18:00;11.93;;;6.50;;
31754;SDS011;18325;52.018;4.726;2024-01-30T09:20:27;11.43;;;6.10;;
31754;SDS011;18325;52.018;4.726;2024-01-30T09:23:02;10.57;;;5.83;;
31754;SDS011;18325;52.018;4.726;2024-01-30T09:25:29;20.03;;;7.43;;
31754;SDS011;18325;52.018;4.726;2024-01-30T09:27:56;19.63;;;7.63;;
31754;SDS011;18325;52.018;4.726;2024-01-30T09:30:27;13.23;;;6.53;;
31754;SDS011;18325;52.018;4.726;2024-01-30T09:32:54;13.50;;;6.73;;
31754;SDS011;18325;52.018;4.726;2024-01-30T09:38:42;12.43;;;6.80;;
31754;SDS011;18325;52.018;4.726;2024-01-30T09:41:09;13.50;;;6.33;;
31754;SDS011;18325;52.018;4.726;2024-01-30T09:43:36;11.33;;;6.20;;
31754;SDS011;18325;52.018;4.726;2024-01-30T09:46:06;12.87;;;6.33;;
31754;SDS011;18325;52.018;4.726;2024-01-30T09:48:34;10.37;;;6.67;;
31754;SDS011;18325;52.018;4.726;2024-01-30T09:51:01;13.33;;;6.50;;
31754;SDS011;18325;52.018;4.726;2024-01-30T09:53:28;15.40;;;7.03;;
31754;SDS011;18325;52.018;4.726;2024-01-30T09:55:55;13.53;;;6.50;;
31754;SDS011;18325;52.018;4.726;2024-01-30T09:58:22;14.07;;;8.10;;
31754;SDS011;18325;52.018;4.726;2024-01-30T10:00:49;14.00;;;6.73;;
31754;SDS011;18325;52.018;4.726;2024-01-30T10:03:17;13.43;;;6.03;;
31754;SDS011;18325;52.018;4.726;2024-01-30T10:05:44;13.90;;;6.10;;
31754;SDS011;18325;52.018;4.726;2024-01-30T10:08:12;13.03;;;5.97;;
31754;SDS011;18325;52.018;4.726;2024-01-30T10:10:39;8.73;;;5.17;;
31754;SDS011;18325;52.018;4.726;2024-01-30T10:13:05;7.93;;;5.63;;
31754;SDS011;18325;52.018;4.726;2024-01-30T10:15:32;10.40;;;5.60;;
31754;SDS011;18325;52.018;4.726;2024-01-30T10:18:02;8.67;;;5.17;;
31754;SDS011;18325;52.018;4.726;2024-01-30T10:20:33;10.13;;;5.00;;
31754;SDS011;18325;52.018;4.726;2024-01-30T10:23:00;9.60;;;3.77;;
31754;SDS011;18325;52.018;4.726;2024-01-30T10:25:26;8.97;;;3.80;;
31754;SDS011;18325;52.018;4.726;2024-01-30T10:27:53;6.07;;;3.17;;
31754;SDS011;18325;52.018;4.726;2024-01-30T10:30:20;6.97;;;4.33;;
31754;SDS011;18325;52.018;4.726;2024-01-30T10:32:47;7.43;;;4.00;;
31754;SDS011;18325;52.018;4.726;2024-01-30T10:35:15;8.10;;;3.70;;
31754;SDS011;18325;52.018;4.726;2024-01-30T10:37:48;5.43;;;3.43;;
31754;SDS011;18325;52.018;4.726;2024-01-30T10:40:17;6.87;;;2.93;;
31754;SDS011;18325;52.018;4.726;2024-01-30T10:42:45;4.43;;;2.00;;
31754;SDS011;18325;52.018;4.726;2024-01-30T10:45:13;5.43;;;2.17;;
31754;SDS011;18325;52.018;4.726;2024-01-30T10:50:19;2.93;;;2.43;;
31754;SDS011;18325;52.018;4.726;2024-01-30T10:52:47;15.93;;;2.20;;
31754;SDS011;18325;52.018;4.726;2024-01-30T10:55:18;5.17;;;2.70;;
31754;SDS011;18325;52.018;4.726;2024-01-30T10:57:45;7.30;;;2.53;;
31754;SDS011;18325;52.018;4.726;2024-01-30T11:00:13;3.63;;;2.47;;
31754;SDS011;18325;52.018;4.726;2024-01-30T11:02:41;7.03;;;3.30;;
31754;SDS011;18325;52.018;4.726;2024-01-30T11:05:08;3.63;;;2.83;;
31754;SDS011;18325;52.018;4.726;2024-01-30T11:07:35;3.70;;;2.23;;
31754;SDS011;18325;52.018;4.726;2024-01-30T11:10:04;3.90;;;1.77;;
31754;SDS011;18325;52.018;4.726;2024-01-30T11:12:37;4.73;;;1.87;;
31754;SDS011;18325;52.018;4.726;2024-01-30T11:15:06;3.03;;;1.67;;
31754;SDS011;18325;52.018;4.726;2024-01-30T11:17:43;6.10;;;2.20;;
31754;SDS011;18325;52.018;4.726;2024-01-30T11:20:11;3.03;;;1.87;;
31754;SDS011;18325;52.018;4.726;2024-01-30T11:22:40;4.53;;;1.60;;
31754;SDS011;18325;52.018;4.726;2024-01-30T11:25:12;5.57;;;1.73;;
31754;SDS011;18325;52.018;4.726;2024-01-30T11:27:39;3.93;;;1.27;;
31754;SDS011;18325;52.018;4.726;2024-01-30T11:30:08;3.90;;;1.00;;
31754;SDS011;18325;52.018;4.726;2024-01-30T11:32:37;4.37;;;1.17;;
31754;SDS011;18325;52.018;4.726;2024-01-30T11:35:05;2.33;;;1.07;;
31754;SDS011;18325;52.018;4.726;2024-01-30T11:37:36;4.23;;;1.33;;
31754;SDS011;18325;52.018;4.726;2024-01-30T11:40:04;5.43;;;1.73;;
31754;SDS011;18325;52.018;4.726;2024-01-30T11:42:33;4.20;;;1.43;;
31754;SDS011;18325;52.018;4.726;2024-01-30T11:45:00;13.47;;;1.87;;
31754;SDS011;18325;52.018;4.726;2024-01-30T11:47:28;4.40;;;1.10;;
31754;SDS011;18325;52.018;4.726;2024-01-30T11:49:55;7.80;;;1.37;;
31754;SDS011;18325;52.018;4.726;2024-01-30T11:52:22;2.83;;;1.00;;
31754;SDS011;18325;52.018;4.726;2024-01-30T11:54:48;7.00;;;1.30;;
31754;SDS011;18325;52.018;4.726;2024-01-30T11:57:15;2.03;;;1.13;;
31754;SDS011;18325;52.018;4.726;2024-01-30T11:59:43;4.93;;;1.00;;
31754;SDS011;18325;52.018;4.726;2024-01-30T12:02:15;3.70;;;1.70;;
31754;SDS011;18325;52.018;4.726;2024-01-30T12:04:41;3.07;;;1.20;;
31754;SDS011;18325;52.018;4.726;2024-01-30T12:07:08;1.27;;;1.00;;
31754;SDS011;18325;52.018;4.726;2024-01-30T12:09:36;2.80;;;0.80;;
31754;SDS011;18325;52.018;4.726;2024-01-30T12:12:03;2.90;;;0.70;;
31754;SDS011;18325;52.018;4.726;2024-01-30T12:14:30;2.43;;;0.50;;
31754;SDS011;18325;52.018;4.726;2024-01-30T12:16:59;2.47;;;0.77;;
31754;SDS011;18325;52.018;4.726;2024-01-30T12:19:25;4.10;;;0.80;;
31754;SDS011;18325;52.018;4.726;2024-01-30T12:21:55;3.03;;;1.47;;
31754;SDS011;18325;52.018;4.726;2024-01-30T12:24:23;5.30;;;1.43;;
31754;SDS011;18325;52.018;4.726;2024-01-30T12:26:50;0.97;;;0.90;;
31754;SDS011;18325;52.018;4.726;2024-01-30T12:29:24;4.03;;;1.67;;
31754;SDS011;18325;52.018;4.726;2024-01-30T12:31:52;4.73;;;0.97;;
31754;SDS011;18325;52.018;4.726;2024-01-30T12:34:20;3.23;;;1.20;;
31754;SDS011;18325;52.018;4.726;2024-01-30T12:36:47;1.50;;;0.87;;
31754;SDS011;18325;52.018;4.726;2024-01-30T12:39:14;2.13;;;0.73;;
31754;SDS011;18325;52.018;4.726;2024-01-30T12:41:42;4.17;;;1.00;;
31754;SDS011;18325;52.018;4.726;2024-01-30T12:44:08;2.00;;;1.00;;
31754;SDS011;18325;52.018;4.726;2024-01-30T12:46:35;4.60;;;1.00;;
31754;SDS011;18325;52.018;4.726;2024-01-30T12:49:02;4.03;;;1.27;;
31754;SDS011;18325;52.018;4.726;2024-01-30T12:51:30;4.07;;;1.10;;
31754;SDS011;18325;52.018;4.726;2024-01-30T12:53:57;2.03;;;1.40;;
31754;SDS011;18325;52.018;4.726;2024-01-30T12:56:24;6.00;;;1.10;;
31754;SDS011;18325;52.018;4.726;2024-01-30T12:58:51;3.90;;;1.20;;
31754;SDS011;18325;52.018;4.726;2024-01-30T13:01:20;3.17;;;1.00;;
31754;SDS011;18325;52.018;4.726;2024-01-30T13:03:47;6.53;;;1.43;;
31754;SDS011;18325;52.018;4.726;2024-01-30T13:06:14;3.00;;;1.20;;
31754;SDS011;18325;52.018;4.726;2024-01-30T13:08:42;2.20;;;1.67;;
31754;SDS011;18325;52.018;4.726;2024-01-30T13:11:08;4.30;;;1.10;;
31754;SDS011;18325;52.018;4.726;2024-01-30T13:13:37;2.73;;;1.10;;
31754;SDS011;18325;52.018;4.726;2024-01-30T13:16:04;7.43;;;1.30;;
31754;SDS011;18325;52.018;4.726;2024-01-30T13:18:31;1.57;;;1.33;;
31754;SDS011;18325;52.018;4.726;2024-01-30T13:20:57;4.07;;;1.40;;
31754;SDS011;18325;52.018;4.726;2024-01-30T13:23:28;4.53;;;1.30;;
31754;SDS011;18325;52.018;4.726;2024-01-30T13:25:55;4.20;;;1.30;;
31754;SDS011;18325;52.018;4.726;2024-01-30T13:28:23;5.90;;;1.40;;
31754;SDS011;18325;52.018;4.726;2024-01-30T13:30:51;4.27;;;1.67;;
31754;SDS011;18325;52.018;4.726;2024-01-30T13:33:18;2.57;;;1.40;;
31754;SDS011;18325;52.018;4.726;2024-01-30T13:35:45;5.87;;;1.20;;
31754;SDS011;18325;52.018;4.726;2024-01-30T13:38:11;7.20;;;1.73;;
31754;SDS011;18325;52.018;4.726;2024-01-30T13:40:41;6.87;;;1.20;;
31754;SDS011;18325;52.018;4.726;2024-01-30T13:43:15;1.63;;;1.10;;
31754;SDS011;18325;52.018;4.726;2024-01-30T13:45:42;5.97;;;1.63;;
31754;SDS011;18325;52.018;4.726;2024-01-30T13:48:09;6.20;;;1.40;;
31754;SDS011;18325;52.018;4.726;2024-01-30T13:50:36;6.47;;;1.20;;
31754;SDS011;18325;52.018;4.726;2024-01-30T13:53:03;2.03;;;1.23;;
31754;SDS011;18325;52.018;4.726;2024-01-30T13:58:34;1.40;;;1.10;;
31754;SDS011;18325;52.018;4.726;2024-01-30T14:01:45;4.33;;;1.73;;
31754;SDS011;18325;52.018;4.726;2024-01-30T14:04:11;3.43;;;1.00;;
31754;SDS011;18325;52.018;4.726;2024-01-30T14:10:01;2.03;;;1.27;;
31754;SDS011;18325;52.018;4.726;2024-01-30T14:12:31;1.90;;;1.27;;
31754;SDS011;18325;52.018;4.726;2024-01-30T14:14:59;1.37;;;1.27;;
31754;SDS011;18325;52.018;4.726;2024-01-30T14:17:26;2.30;;;1.53;;
31754;SDS011;18325;52.018;4.726;2024-01-30T14:22:53;3.90;;;2.03;;
31754;SDS011;18325;52.018;4.726;2024-01-30T14:25:20;7.97;;;2.50;;
31754;SDS011;18325;52.018;4.726;2024-01-30T14:27:47;4.70;;;1.80;;
31754;SDS011;18325;52.018;4.726;2024-01-30T14:30:15;3.53;;;2.00;;
31754;SDS011;18325;52.018;4.726;2024-01-30T14:32:42;8.87;;;2.37;;
31754;SDS011;18325;52.018;4.726;2024-01-30T14:35:14;2.70;;;1.97;;
31754;SDS011;18325;52.018;4.726;2024-01-30T14:37:45;6.17;;;2.80;;
31754;SDS011;18325;52.018;4.726;2024-01-30T14:43:34;3.77;;;1.73;;
31754;SDS011;18325;52.018;4.726;2024-01-30T14:46:12;4.23;;;2.27;;
31754;SDS011;18325;52.018;4.726;2024-01-30T14:51:46;4.33;;;2.03;;
31754;SDS011;18325;52.018;4.726;2024-01-30T14:57:55;6.47;;;2.10;;
31754;SDS011;18325;52.018;4.726;2024-01-30T15:00:35;4.47;;;2.43;;
31754;SDS011;18325;52.018;4.726;2024-01-30T15:03:12;4.63;;;2.33;;
31754;SDS011;18325;52.018;4.726;2024-01-30T15:05:42;3.70;;;2.50;;
31754;SDS011;18325;52.018;4.726;2024-01-30T15:08:19;4.10;;;2.43;;
31754;SDS011;18325;52.018;4.726;2024-01-30T15:10:46;8.47;;;2.47;;
31754;SDS011;18325;52.018;4.726;2024-01-30T15:13:12;6.23;;;2.20;;
31754;SDS011;18325;52.018;4.726;2024-01-30T15:15:39;5.70;;;2.23;;